createdAt,value
2018-11-22T12:17:30.139Z,16.13
2018-11-22T12:19:59.428Z,15.67
2018-11-22T12:22:26.511Z,18.20
2018-11-22T12:24:54.915Z,16.87
2018-11-22T12:27:23.111Z,17.33
2018-11-22T12:29:51.326Z,18.30
2018-11-22T12:32:25.222Z,16.03
2018-11-22T12:34:59.880Z,17.37
2018-11-22T12:37:35.014Z,16.30
2018-11-22T12:40:05.120Z,17.07
2018-11-22T12:42:33.321Z,16.73
2018-11-22T12:45:01.496Z,16.47
2018-11-22T12:47:30.577Z,18.13
2018-11-22T12:49:59.471Z,15.07
2018-11-22T12:52:28.080Z,16.03
2018-11-22T12:54:56.511Z,15.67
2018-11-22T12:57:25.220Z,15.27
2018-11-22T12:59:54.315Z,15.67
2018-11-22T13:02:22.749Z,16.37
2018-11-22T13:04:51.083Z,16.23
2018-11-22T13:07:19.359Z,16.13
2018-11-22T13:09:47.536Z,15.87
2018-11-22T13:12:15.735Z,15.30
2018-11-22T13:14:44.049Z,17.07
2018-11-22T13:17:12.237Z,13.47
2018-11-22T13:19:40.407Z,14.50
2018-11-22T13:22:09.003Z,15.60
2018-11-22T13:24:37.200Z,16.80
2018-11-22T13:27:05.740Z,16.10
2018-11-22T13:29:33.894Z,15.47
2018-11-22T13:32:02.282Z,16.10
2018-11-22T13:34:30.651Z,15.50
2018-11-22T13:36:59.291Z,14.07
2018-11-22T13:39:27.680Z,15.90
2018-11-22T13:41:55.851Z,16.47
2018-11-22T13:44:24.028Z,15.63
2018-11-22T13:46:52.281Z,14.50
2018-11-22T13:49:20.676Z,14.87
2018-11-22T13:51:48.844Z,16.87
2018-11-22T13:54:17.003Z,18.87
2018-11-22T13:56:45.442Z,19.70
2018-11-22T13:59:13.571Z,17.53
2018-11-22T14:01:41.748Z,17.23
2018-11-22T14:04:09.916Z,16.43
2018-11-22T14:06:38.089Z,17.93
2018-11-22T14:09:08.371Z,17.03
2018-11-22T14:11:36.546Z,17.27
2018-11-22T14:14:05.622Z,17.80
2018-11-22T14:16:33.815Z,15.10
2018-11-22T14:19:01.992Z,16.63
2018-11-22T14:21:30.387Z,16.27
2018-11-22T14:23:58.548Z,17.53
2018-11-22T14:26:26.719Z,18.07
2018-11-22T14:28:54.995Z,18.67
2018-11-22T14:31:23.485Z,27.20
2018-11-22T14:33:51.631Z,22.23
2018-11-22T14:36:19.800Z,21.07
2018-11-22T14:38:48.400Z,22.33
2018-11-22T14:41:16.575Z,22.97
2018-11-22T14:43:44.735Z,22.33
2018-11-22T14:46:12.911Z,19.87
2018-11-22T14:48:41.072Z,22.27
2018-11-22T14:51:15.891Z,20.80
2018-11-22T14:53:44.251Z,21.50
2018-11-22T14:56:12.412Z,19.87
2018-11-22T14:58:40.594Z,20.73
2018-11-22T15:01:08.847Z,17.50
2018-11-22T15:03:37.362Z,18.00
2018-11-22T15:06:05.591Z,17.13
2018-11-22T15:08:33.983Z,17.30
2018-11-22T15:11:02.145Z,15.40
2018-11-22T15:13:30.315Z,16.03
2018-11-22T15:15:58.527Z,20.17
2018-11-22T15:18:26.695Z,19.60
2018-11-22T15:21:00.895Z,19.53
2018-11-22T15:23:23.019Z,18.60
2018-11-22T15:25:51.196Z,17.30
2018-11-22T15:28:19.743Z,17.80
2018-11-22T15:30:47.910Z,17.63
2018-11-22T15:33:16.063Z,19.00
2018-11-22T15:35:44.229Z,26.37
2018-11-22T15:38:12.401Z,17.83
2018-11-22T15:40:40.563Z,22.57
2018-11-22T15:43:08.751Z,24.20
2018-11-22T15:45:36.923Z,16.93
2018-11-22T15:48:05.515Z,16.33
2018-11-22T15:50:33.897Z,17.30
2018-11-22T15:53:01.869Z,16.67
2018-11-22T15:55:30.032Z,17.27
2018-11-22T15:57:59.570Z,18.60
2018-11-22T16:00:30.091Z,17.97
2018-11-22T16:02:58.782Z,15.07
2018-11-22T16:05:27.663Z,16.07
2018-11-22T16:07:55.920Z,16.73
2018-11-22T16:10:26.783Z,15.97
2018-11-22T16:12:55.431Z,17.00
2018-11-22T16:15:26.523Z,18.97
2018-11-22T16:17:54.687Z,15.07
2018-11-22T16:20:22.847Z,16.13
2018-11-22T16:22:51.023Z,16.07
2018-11-22T16:25:19.184Z,15.63
2018-11-22T16:27:47.587Z,16.73
2018-11-22T16:30:17.279Z,16.57
2018-11-22T16:32:46.082Z,26.03
2018-11-22T16:35:15.475Z,37.37
2018-11-22T16:37:44.163Z,21.90
2018-11-22T16:40:16.829Z,22.77
2018-11-22T16:42:46.335Z,21.13
2018-11-22T16:45:23.726Z,20.20
2018-11-22T16:47:51.945Z,15.77
2018-11-22T16:50:21.834Z,18.03
2018-11-22T16:52:50.091Z,16.73
2018-11-22T16:55:18.779Z,16.60
2018-11-22T16:57:48.092Z,17.87
2018-11-22T17:00:20.792Z,16.10
2018-11-22T17:02:50.071Z,17.23
2018-11-22T17:05:18.362Z,16.03
2018-11-22T17:07:46.908Z,17.57
2018-11-22T17:10:17.113Z,17.43
2018-11-22T17:12:46.127Z,17.23
2018-11-22T17:15:15.847Z,16.70
2018-11-22T17:17:44.620Z,17.73
2018-11-22T17:20:15.167Z,18.33
2018-11-22T17:22:43.831Z,16.40
2018-11-22T17:25:15.188Z,17.67
2018-11-22T17:27:44.071Z,18.40
2018-11-22T17:30:14.808Z,16.10
2018-11-22T17:32:43.487Z,16.73
2018-11-22T17:35:14.230Z,18.17
2018-11-22T17:37:42.704Z,15.87
2018-11-22T17:40:14.605Z,18.13
2018-11-22T17:42:42.560Z,17.63
2018-11-22T17:45:12.958Z,19.50
2018-11-22T17:47:41.179Z,19.67
2018-11-22T17:50:11.674Z,18.60
2018-11-22T17:52:39.831Z,19.10
2018-11-22T17:55:12.214Z,19.50
2018-11-22T17:57:40.783Z,20.27
2018-11-22T18:00:16.744Z,20.80
2018-11-22T18:02:46.147Z,19.03
2018-11-22T18:05:14.328Z,20.50
2018-11-22T18:07:42.515Z,21.07
2018-11-22T18:10:13.089Z,20.60
2018-11-22T18:12:42.315Z,18.87
2018-11-22T18:15:11.793Z,19.30
2018-11-22T18:17:39.957Z,18.43
2018-11-22T18:20:14.784Z,20.97
2018-11-22T18:22:43.311Z,22.03
2018-11-22T18:25:14.354Z,19.27
2018-11-22T18:27:42.615Z,19.90
2018-11-22T18:30:13.777Z,19.70
2018-11-22T18:32:42.451Z,19.70
2018-11-22T18:35:12.272Z,23.30
2018-11-22T18:37:40.743Z,20.80
2018-11-22T18:40:16.089Z,20.97
2018-11-22T18:42:45.076Z,20.47
2018-11-22T18:45:15.119Z,20.23
2018-11-22T18:47:44.179Z,21.27
2018-11-22T18:50:15.956Z,21.90
2018-11-22T18:52:44.522Z,16.53
2018-11-22T18:55:12.867Z,18.17
2018-11-22T18:57:42.030Z,18.97
2018-11-22T19:00:16.216Z,19.03
2018-11-22T19:02:44.679Z,19.83
2018-11-22T19:05:14.119Z,18.00
2018-11-22T19:07:43.498Z,20.37
2018-11-22T19:10:14.244Z,19.43
2018-11-22T19:12:43.025Z,18.73
2018-11-22T19:15:13.151Z,20.40
2018-11-22T19:17:41.319Z,20.67
2018-11-22T19:20:13.176Z,17.60
2018-11-22T19:22:41.999Z,19.63
2018-11-22T19:25:10.446Z,19.30
2018-11-22T19:27:38.683Z,21.67
2018-11-22T19:30:11.347Z,20.37
2018-11-22T19:32:39.507Z,20.80
2018-11-22T19:35:09.623Z,21.60
2018-11-22T19:37:38.071Z,21.10
2018-11-22T19:40:11.370Z,19.77
2018-11-22T19:42:39.794Z,21.77
2018-11-22T19:45:09.767Z,20.83
2018-11-22T19:47:37.935Z,19.17
2018-11-22T19:50:08.739Z,19.37
2018-11-22T19:52:37.055Z,21.17
2018-11-22T19:55:06.503Z,22.73
2018-11-22T19:57:34.683Z,21.53
2018-11-22T20:00:02.887Z,20.80
2018-11-22T20:02:31.065Z,20.30
2018-11-22T20:04:59.283Z,22.03
2018-11-22T20:07:27.607Z,22.17
2018-11-22T20:09:55.790Z,20.57
2018-11-22T20:12:24.098Z,23.67
2018-11-22T20:14:52.285Z,22.50
2018-11-22T20:17:20.470Z,21.43
2018-11-22T20:19:48.619Z,20.17
2018-11-22T20:22:16.790Z,21.30
2018-11-22T20:24:44.967Z,21.87
2018-11-22T20:27:13.147Z,22.07
2018-11-22T20:29:41.317Z,22.83
2018-11-22T20:32:09.482Z,23.50
2018-11-22T20:34:37.700Z,22.77
2018-11-22T20:37:06.100Z,22.50
2018-11-22T20:39:34.298Z,23.43
2018-11-22T20:42:02.462Z,24.63
2018-11-22T20:44:31.455Z,24.07
2018-11-22T20:46:59.631Z,25.90
2018-11-22T20:49:28.039Z,23.77
2018-11-22T20:51:56.207Z,24.37
2018-11-22T20:54:24.376Z,25.20
2018-11-22T20:56:52.552Z,26.10
2018-11-22T20:59:20.719Z,23.93
2018-11-22T21:01:51.800Z,23.30
2018-11-22T21:04:17.531Z,24.83
2018-11-22T21:06:45.715Z,25.03
2018-11-22T21:09:13.882Z,25.60
2018-11-22T21:11:43.535Z,28.73
2018-11-22T21:14:10.235Z,25.67
2018-11-22T21:16:38.691Z,27.00
2018-11-22T21:19:06.885Z,25.23
2018-11-22T21:21:35.060Z,26.60
2018-11-22T21:24:03.325Z,25.23
2018-11-22T21:26:31.743Z,26.93
2018-11-22T21:28:59.934Z,27.63
2018-11-22T21:31:28.123Z,26.47
2018-11-22T21:33:56.499Z,26.13
2018-11-22T21:36:24.680Z,27.43
2018-11-22T21:38:52.871Z,25.03
2018-11-22T21:41:21.047Z,27.53
2018-11-22T21:43:49.233Z,26.80
2018-11-22T21:46:21.676Z,25.73
2018-11-22T21:48:49.848Z,25.43
2018-11-22T21:51:18.296Z,25.80
2018-11-22T21:53:46.471Z,25.20
2018-11-22T21:56:14.905Z,24.70
2018-11-22T21:58:43.048Z,25.50
2018-11-22T22:01:11.230Z,24.93
2018-11-22T22:03:40.084Z,23.97
2018-11-22T22:06:08.285Z,25.80
2018-11-22T22:08:36.692Z,26.67
2018-11-22T22:11:04.927Z,24.33
2018-11-22T22:13:33.111Z,23.50
2018-11-22T22:16:01.331Z,24.60
2018-11-22T22:18:29.521Z,24.67
2018-11-22T22:20:57.703Z,25.17
2018-11-22T22:23:25.876Z,30.20
2018-11-22T22:25:54.055Z,30.77
2018-11-22T22:28:22.242Z,28.27
2018-11-22T22:30:50.845Z,24.70
2018-11-22T22:33:19.024Z,25.57
2018-11-22T22:35:47.207Z,24.33
2018-11-22T22:38:15.395Z,24.63
2018-11-22T22:40:43.564Z,24.67
2018-11-22T22:43:11.751Z,25.73
2018-11-22T22:45:39.922Z,22.83
2018-11-22T22:48:08.099Z,22.63
2018-11-22T22:50:36.267Z,23.80
2018-11-22T22:53:04.719Z,24.00
2018-11-22T22:55:33.103Z,23.73
2018-11-22T22:58:01.291Z,24.33
2018-11-22T23:00:34.716Z,21.67
2018-11-22T23:03:04.189Z,24.40
2018-11-22T23:05:32.967Z,23.50
2018-11-22T23:08:01.362Z,24.33
2018-11-22T23:10:29.546Z,24.40
2018-11-22T23:12:58.543Z,24.70
2018-11-22T23:15:27.827Z,23.90
2018-11-22T23:17:56.033Z,24.10
2018-11-22T23:20:25.809Z,23.43
2018-11-22T23:22:54.122Z,24.77
2018-11-22T23:25:23.284Z,24.43
2018-11-22T23:27:51.483Z,26.57
2018-11-22T23:30:21.871Z,23.37
2018-11-22T23:32:51.265Z,24.57
2018-11-22T23:35:19.635Z,23.73
2018-11-22T23:37:47.971Z,24.23
2018-11-22T23:40:17.582Z,23.97
2018-11-22T23:42:45.825Z,24.10
2018-11-22T23:45:15.531Z,24.70
2018-11-22T23:47:44.101Z,23.43
2018-11-22T23:50:14.327Z,23.23
2018-11-22T23:52:44.152Z,23.90
2018-11-22T23:55:12.350Z,24.33
2018-11-22T23:57:40.706Z,24.33
